sensor_id;sensor_type;location;lat;lon;timestamp;temperature;humidity
59505;DHT22;45321;53.200;5.814;2023-05-08T00:00:04;15.80;70.10
59505;DHT22;45321;53.200;5.814;2023-05-08T00:02:30;15.70;70.20
59505;DHT22;45321;53.200;5.814;2023-05-08T00:04:56;15.70;70.30
59505;DHT22;45321;53.200;5.814;2023-05-08T00:07:22;15.70;70.30
59505;DHT22;45321;53.200;5.814;2023-05-08T00:09:47;15.70;69.70
59505;DHT22;45321;53.200;5.814;2023-05-08T00:12:13;15.70;70.20
59505;DHT22;45321;53.200;5.814;2023-05-08T00:14:39;15.60;70.50
59505;DHT22;45321;53.200;5.814;2023-05-08T00:17:04;15.60;70.40
59505;DHT22;45321;53.200;5.814;2023-05-08T00:19:31;15.50;70.40
59505;DHT22;45321;53.200;5.814;2023-05-08T00:21:56;15.50;70.40
59505;DHT22;45321;53.200;5.814;2023-05-08T00:24:22;15.50;70.60
59505;DHT22;45321;53.200;5.814;2023-05-08T00:26:48;15.50;70.60
59505;DHT22;45321;53.200;5.814;2023-05-08T00:29:13;15.50;70.60
59505;DHT22;45321;53.200;5.814;2023-05-08T00:31:39;15.40;70.70
59505;DHT22;45321;53.200;5.814;2023-05-08T00:34:05;15.40;70.60
59505;DHT22;45321;53.200;5.814;2023-05-08T00:36:31;15.40;70.80
59505;DHT22;45321;53.200;5.814;2023-05-08T00:38:56;15.40;70.70
59505;DHT22;45321;53.200;5.814;2023-05-08T00:41:22;15.40;71.00
59505;DHT22;45321;53.200;5.814;2023-05-08T00:43:48;15.30;70.70
59505;DHT22;45321;53.200;5.814;2023-05-08T00:46:14;15.30;70.80
59505;DHT22;45321;53.200;5.814;2023-05-08T00:48:41;15.30;70.80
59505;DHT22;45321;53.200;5.814;2023-05-08T00:51:08;15.30;71.00
59505;DHT22;45321;53.200;5.814;2023-05-08T00:53:38;15.30;71.20
59505;DHT22;45321;53.200;5.814;2023-05-08T00:56:05;15.20;71.20
59505;DHT22;45321;53.200;5.814;2023-05-08T00:58:34;15.10;71.40
59505;DHT22;45321;53.200;5.814;2023-05-08T01:01:00;15.10;71.50
59505;DHT22;45321;53.200;5.814;2023-05-08T01:03:26;15.10;71.40
59505;DHT22;45321;53.200;5.814;2023-05-08T01:05:53;15.10;71.10
59505;DHT22;45321;53.200;5.814;2023-05-08T01:08:19;15.00;71.30
59505;DHT22;45321;53.200;5.814;2023-05-08T01:10:59;15.00;71.50
59505;DHT22;45321;53.200;5.814;2023-05-08T01:14:02;15.00;71.50
59505;DHT22;45321;53.200;5.814;2023-05-08T01:33:32;14.80;71.90
59505;DHT22;45321;53.200;5.814;2023-05-08T01:36:14;14.80;71.90
59505;DHT22;45321;53.200;5.814;2023-05-08T01:38:52;14.80;72.20
59505;DHT22;45321;53.200;5.814;2023-05-08T01:41:25;14.80;72.00
59505;DHT22;45321;53.200;5.814;2023-05-08T01:44:17;14.80;72.00
59505;DHT22;45321;53.200;5.814;2023-05-08T01:46:47;14.70;72.00
59505;DHT22;45321;53.200;5.814;2023-05-08T01:49:24;14.80;72.10
59505;DHT22;45321;53.200;5.814;2023-05-08T01:52:03;14.80;72.30
59505;DHT22;45321;53.200;5.814;2023-05-08T01:54:38;14.70;72.30
59505;DHT22;45321;53.200;5.814;2023-05-08T01:57:06;14.70;72.40
59505;DHT22;45321;53.200;5.814;2023-05-08T01:59:34;14.70;72.20
59505;DHT22;45321;53.200;5.814;2023-05-08T02:02:01;14.70;72.30
59505;DHT22;45321;53.200;5.814;2023-05-08T02:04:28;14.60;72.50
59505;DHT22;45321;53.200;5.814;2023-05-08T02:06:55;14.60;72.70
59505;DHT22;45321;53.200;5.814;2023-05-08T02:09:23;14.60;72.80
59505;DHT22;45321;53.200;5.814;2023-05-08T02:11:50;14.60;72.70
59505;DHT22;45321;53.200;5.814;2023-05-08T02:14:18;14.50;72.70
59505;DHT22;45321;53.200;5.814;2023-05-08T02:16:46;14.50;72.90
59505;DHT22;45321;53.200;5.814;2023-05-08T02:19:14;14.50;72.90
59505;DHT22;45321;53.200;5.814;2023-05-08T02:21:41;14.50;72.60
59505;DHT22;45321;53.200;5.814;2023-05-08T02:24:08;14.40;72.80
59505;DHT22;45321;53.200;5.814;2023-05-08T02:26:36;14.50;72.90
59505;DHT22;45321;53.200;5.814;2023-05-08T02:29:02;14.50;73.00
59505;DHT22;45321;53.200;5.814;2023-05-08T02:31:29;14.40;73.10
59505;DHT22;45321;53.200;5.814;2023-05-08T02:33:57;14.30;73.10
59505;DHT22;45321;53.200;5.814;2023-05-08T02:36:24;14.30;73.10
59505;DHT22;45321;53.200;5.814;2023-05-08T02:38:53;14.30;73.00
59505;DHT22;45321;53.200;5.814;2023-05-08T02:41:21;14.20;73.10
59505;DHT22;45321;53.200;5.814;2023-05-08T02:43:48;14.20;73.40
59505;DHT22;45321;53.200;5.814;2023-05-08T02:46:18;14.20;73.60
59505;DHT22;45321;53.200;5.814;2023-05-08T02:49:03;14.20;73.80
59505;DHT22;45321;53.200;5.814;2023-05-08T02:51:52;14.20;73.70
59505;DHT22;45321;53.200;5.814;2023-05-08T02:54:41;14.20;73.70
59505;DHT22;45321;53.200;5.814;2023-05-08T02:57:38;14.20;73.80
59505;DHT22;45321;53.200;5.814;2023-05-08T03:00:28;14.10;73.90
59505;DHT22;45321;53.200;5.814;2023-05-08T03:02:59;14.10;73.80
59505;DHT22;45321;53.200;5.814;2023-05-08T03:05:30;14.10;73.90
59505;DHT22;45321;53.200;5.814;2023-05-08T03:07:59;14.00;74.00
59505;DHT22;45321;53.200;5.814;2023-05-08T03:10:35;14.00;74.20
59505;DHT22;45321;53.200;5.814;2023-05-08T03:13:05;13.90;74.30
59505;DHT22;45321;53.200;5.814;2023-05-08T03:16:03;13.90;74.30
59505;DHT22;45321;53.200;5.814;2023-05-08T03:18:40;13.90;74.50
59505;DHT22;45321;53.200;5.814;2023-05-08T03:21:08;13.80;74.50
59505;DHT22;45321;53.200;5.814;2023-05-08T03:23:38;13.80;74.50
59505;DHT22;45321;53.200;5.814;2023-05-08T03:26:05;13.80;74.60
59505;DHT22;45321;53.200;5.814;2023-05-08T03:28:33;13.80;74.70
59505;DHT22;45321;53.200;5.814;2023-05-08T03:31:00;13.70;74.90
59505;DHT22;45321;53.200;5.814;2023-05-08T03:33:28;13.70;75.20
59505;DHT22;45321;53.200;5.814;2023-05-08T03:35:54;13.60;75.20
59505;DHT22;45321;53.200;5.814;2023-05-08T03:38:20;13.50;75.30
59505;DHT22;45321;53.200;5.814;2023-05-08T03:40:47;13.50;75.30
59505;DHT22;45321;53.200;5.814;2023-05-08T03:43:14;13.50;75.30
59505;DHT22;45321;53.200;5.814;2023-05-08T03:45:40;13.50;75.40
59505;DHT22;45321;53.200;5.814;2023-05-08T03:48:07;13.50;75.10
59505;DHT22;45321;53.200;5.814;2023-05-08T03:50:35;13.50;75.30
59505;DHT22;45321;53.200;5.814;2023-05-08T03:53:01;13.40;75.20
59505;DHT22;45321;53.200;5.814;2023-05-08T03:55:29;13.40;75.40
59505;DHT22;45321;53.200;5.814;2023-05-08T03:58:19;13.40;75.20
59505;DHT22;45321;53.200;5.814;2023-05-08T04:01:10;13.40;75.00
59505;DHT22;45321;53.200;5.814;2023-05-08T04:04:04;13.40;75.30
59505;DHT22;45321;53.200;5.814;2023-05-08T04:06:39;13.30;75.30
59505;DHT22;45321;53.200;5.814;2023-05-08T04:09:30;13.30;75.20
59505;DHT22;45321;53.200;5.814;2023-05-08T04:12:08;13.30;75.10
59505;DHT22;45321;53.200;5.814;2023-05-08T04:14:43;13.30;75.20
59505;DHT22;45321;53.200;5.814;2023-05-08T04:17:10;13.30;75.30
59505;DHT22;45321;53.200;5.814;2023-05-08T04:19:41;13.30;75.20
59505;DHT22;45321;53.200;5.814;2023-05-08T04:22:08;13.30;75.20
59505;DHT22;45321;53.200;5.814;2023-05-08T04:24:40;13.30;75.30
59505;DHT22;45321;53.200;5.814;2023-05-08T04:27:08;13.30;75.10
59505;DHT22;45321;53.200;5.814;2023-05-08T04:29:34;13.30;75.30
59505;DHT22;45321;53.200;5.814;2023-05-08T04:32:00;13.30;75.30
59505;DHT22;45321;53.200;5.814;2023-05-08T04:34:27;13.30;75.50
59505;DHT22;45321;53.200;5.814;2023-05-08T04:36:53;13.30;75.50
59505;DHT22;45321;53.200;5.814;2023-05-08T04:39:19;13.30;75.20
59505;DHT22;45321;53.200;5.814;2023-05-08T04:41:46;13.20;75.40
59505;DHT22;45321;53.200;5.814;2023-05-08T04:44:13;13.20;75.50
59505;DHT22;45321;53.200;5.814;2023-05-08T04:46:39;13.30;75.70
59505;DHT22;45321;53.200;5.814;2023-05-08T04:49:04;13.20;75.80
59505;DHT22;45321;53.200;5.814;2023-05-08T04:51:30;13.20;75.90
59505;DHT22;45321;53.200;5.814;2023-05-08T04:53:56;13.20;75.70
59505;DHT22;45321;53.200;5.814;2023-05-08T04:56:22;13.10;76.00
59505;DHT22;45321;53.200;5.814;2023-05-08T04:58:47;13.20;75.80
59505;DHT22;45321;53.200;5.814;2023-05-08T05:01:13;13.20;75.80
59505;DHT22;45321;53.200;5.814;2023-05-08T05:03:39;13.20;75.80
59505;DHT22;45321;53.200;5.814;2023-05-08T05:06:05;13.20;75.90
59505;DHT22;45321;53.200;5.814;2023-05-08T05:08:30;13.30;75.70
59505;DHT22;45321;53.200;5.814;2023-05-08T05:10:56;13.20;75.00
59505;DHT22;45321;53.200;5.814;2023-05-08T05:13:22;13.30;75.80
59505;DHT22;45321;53.200;5.814;2023-05-08T05:15:48;13.30;75.80
59505;DHT22;45321;53.200;5.814;2023-05-08T05:18:15;13.30;75.70
59505;DHT22;45321;53.200;5.814;2023-05-08T05:20:41;13.30;75.80
59505;DHT22;45321;53.200;5.814;2023-05-08T05:23:07;13.20;75.90
59505;DHT22;45321;53.200;5.814;2023-05-08T05:25:33;13.30;75.90
59505;DHT22;45321;53.200;5.814;2023-05-08T05:27:59;13.30;76.00
59505;DHT22;45321;53.200;5.814;2023-05-08T05:30:25;13.30;75.80
59505;DHT22;45321;53.200;5.814;2023-05-08T05:32:51;13.30;76.00
59505;DHT22;45321;53.200;5.814;2023-05-08T05:35:17;13.30;76.00
59505;DHT22;45321;53.200;5.814;2023-05-08T05:37:42;13.30;76.30
59505;DHT22;45321;53.200;5.814;2023-05-08T05:40:08;13.30;76.20
59505;DHT22;45321;53.200;5.814;2023-05-08T05:42:35;13.30;76.40
59505;DHT22;45321;53.200;5.814;2023-05-08T05:45:01;13.40;75.70
59505;DHT22;45321;53.200;5.814;2023-05-08T05:47:26;13.40;75.90
59505;DHT22;45321;53.200;5.814;2023-05-08T05:49:52;13.40;76.90
59505;DHT22;45321;53.200;5.814;2023-05-08T05:52:18;13.40;76.30
59505;DHT22;45321;53.200;5.814;2023-05-08T05:54:44;13.40;76.50
59505;DHT22;45321;53.200;5.814;2023-05-08T05:57:11;13.40;76.20
59505;DHT22;45321;53.200;5.814;2023-05-08T05:59:39;13.40;76.20
59505;DHT22;45321;53.200;5.814;2023-05-08T06:02:06;13.50;76.30
59505;DHT22;45321;53.200;5.814;2023-05-08T06:04:32;13.40;76.20
59505;DHT22;45321;53.200;5.814;2023-05-08T06:06:58;13.50;76.40
59505;DHT22;45321;53.200;5.814;2023-05-08T06:09:23;13.50;75.90
59505;DHT22;45321;53.200;5.814;2023-05-08T06:11:49;13.60;75.60
59505;DHT22;45321;53.200;5.814;2023-05-08T06:14:15;13.60;75.40
59505;DHT22;45321;53.200;5.814;2023-05-08T06:16:41;13.60;75.60
59505;DHT22;45321;53.200;5.814;2023-05-08T06:19:07;13.60;75.90
59505;DHT22;45321;53.200;5.814;2023-05-08T06:21:32;13.70;75.80
59505;DHT22;45321;53.200;5.814;2023-05-08T06:23:58;13.60;75.90
59505;DHT22;45321;53.200;5.814;2023-05-08T06:26:24;13.70;75.80
59505;DHT22;45321;53.200;5.814;2023-05-08T06:28:50;13.80;76.00
59505;DHT22;45321;53.200;5.814;2023-05-08T06:31:16;13.80;76.00
59505;DHT22;45321;53.200;5.814;2023-05-08T06:33:42;13.80;75.80
59505;DHT22;45321;53.200;5.814;2023-05-08T06:36:07;13.80;75.80
59505;DHT22;45321;53.200;5.814;2023-05-08T06:38:33;13.80;75.60
59505;DHT22;45321;53.200;5.814;2023-05-08T06:40:59;13.90;75.90
59505;DHT22;45321;53.200;5.814;2023-05-08T06:43:25;14.00;75.40
59505;DHT22;45321;53.200;5.814;2023-05-08T06:45:50;14.10;75.50
59505;DHT22;45321;53.200;5.814;2023-05-08T06:48:17;14.20;75.90
59505;DHT22;45321;53.200;5.814;2023-05-08T06:50:43;14.30;75.10
59505;DHT22;45321;53.200;5.814;2023-05-08T06:53:09;14.40;75.00
59505;DHT22;45321;53.200;5.814;2023-05-08T06:55:35;14.50;74.70
59505;DHT22;45321;53.200;5.814;2023-05-08T06:58:01;14.60;74.70
59505;DHT22;45321;53.200;5.814;2023-05-08T07:00:27;14.70;74.60
59505;DHT22;45321;53.200;5.814;2023-05-08T07:02:52;14.80;73.90
59505;DHT22;45321;53.200;5.814;2023-05-08T07:05:18;14.90;73.80
59505;DHT22;45321;53.200;5.814;2023-05-08T07:07:44;15.00;73.40
59505;DHT22;45321;53.200;5.814;2023-05-08T07:10:10;15.10;72.90
59505;DHT22;45321;53.200;5.814;2023-05-08T07:12:36;15.20;73.50
59505;DHT22;45321;53.200;5.814;2023-05-08T07:15:02;15.30;73.30
59505;DHT22;45321;53.200;5.814;2023-05-08T07:17:28;15.50;73.00
59505;DHT22;45321;53.200;5.814;2023-05-08T07:19:55;15.60;72.10
59505;DHT22;45321;53.200;5.814;2023-05-08T07:22:21;15.60;72.00
59505;DHT22;45321;53.200;5.814;2023-05-08T07:24:46;15.70;71.70
59505;DHT22;45321;53.200;5.814;2023-05-08T07:27:12;15.70;71.40
59505;DHT22;45321;53.200;5.814;2023-05-08T07:29:39;15.80;71.70
59505;DHT22;45321;53.200;5.814;2023-05-08T07:32:09;15.80;71.30
59505;DHT22;45321;53.200;5.814;2023-05-08T07:34:34;15.90;71.60
59505;DHT22;45321;53.200;5.814;2023-05-08T07:37:00;16.00;71.30
59505;DHT22;45321;53.200;5.814;2023-05-08T07:39:26;16.10;71.40
59505;DHT22;45321;53.200;5.814;2023-05-08T07:41:52;16.20;70.90
59505;DHT22;45321;53.200;5.814;2023-05-08T07:44:18;16.20;71.10
59505;DHT22;45321;53.200;5.814;2023-05-08T07:46:44;16.20;71.00
59505;DHT22;45321;53.200;5.814;2023-05-08T07:49:10;16.10;71.10
59505;DHT22;45321;53.200;5.814;2023-05-08T07:51:35;16.10;71.10
59505;DHT22;45321;53.200;5.814;2023-05-08T07:54:01;16.10;71.20
59505;DHT22;45321;53.200;5.814;2023-05-08T07:56:27;16.10;71.20
59505;DHT22;45321;53.200;5.814;2023-05-08T07:58:53;16.10;71.50
59505;DHT22;45321;53.200;5.814;2023-05-08T08:01:18;16.10;71.00
59505;DHT22;45321;53.200;5.814;2023-05-08T08:03:45;16.00;71.20
59505;DHT22;45321;53.200;5.814;2023-05-08T08:06:11;15.90;71.00
59505;DHT22;45321;53.200;5.814;2023-05-08T08:08:37;16.00;71.60
59505;DHT22;45321;53.200;5.814;2023-05-08T08:11:04;15.90;71.40
59505;DHT22;45321;53.200;5.814;2023-05-08T08:13:30;15.90;71.70
59505;DHT22;45321;53.200;5.814;2023-05-08T08:15:57;16.00;71.30
59505;DHT22;45321;53.200;5.814;2023-05-08T08:18:23;16.20;71.60
59505;DHT22;45321;53.200;5.814;2023-05-08T08:20:49;16.20;71.70
59505;DHT22;45321;53.200;5.814;2023-05-08T08:23:14;16.40;71.20
59505;DHT22;45321;53.200;5.814;2023-05-08T08:25:40;16.60;70.90
59505;DHT22;45321;53.200;5.814;2023-05-08T08:28:06;16.70;69.90
59505;DHT22;45321;53.200;5.814;2023-05-08T08:30:32;16.80;70.30
59505;DHT22;45321;53.200;5.814;2023-05-08T08:32:58;16.80;69.90
59505;DHT22;45321;53.200;5.814;2023-05-08T08:35:27;16.90;69.80
59505;DHT22;45321;53.200;5.814;2023-05-08T08:37:56;17.10;69.60
59505;DHT22;45321;53.200;5.814;2023-05-08T08:40:22;17.10;69.40
59505;DHT22;45321;53.200;5.814;2023-05-08T08:42:48;17.30;69.50
59505;DHT22;45321;53.200;5.814;2023-05-08T08:45:14;17.40;69.10
59505;DHT22;45321;53.200;5.814;2023-05-08T08:47:43;17.60;69.50
59505;DHT22;45321;53.200;5.814;2023-05-08T08:50:09;17.80;68.10
59505;DHT22;45321;53.200;5.814;2023-05-08T08:52:49;17.90;67.90
59505;DHT22;45321;53.200;5.814;2023-05-08T08:55:17;18.10;68.60
59505;DHT22;45321;53.200;5.814;2023-05-08T08:58:13;18.20;67.70
59505;DHT22;45321;53.200;5.814;2023-05-08T09:00:38;18.20;67.30
59505;DHT22;45321;53.200;5.814;2023-05-08T09:03:07;18.20;68.10
59505;DHT22;45321;53.200;5.814;2023-05-08T09:05:33;18.20;68.10
59505;DHT22;45321;53.200;5.814;2023-05-08T09:08:00;18.20;68.00
59505;DHT22;45321;53.200;5.814;2023-05-08T09:10:26;18.30;67.90
59505;DHT22;45321;53.200;5.814;2023-05-08T09:12:52;18.30;68.00
59505;DHT22;45321;53.200;5.814;2023-05-08T09:15:18;18.50;68.30
59505;DHT22;45321;53.200;5.814;2023-05-08T09:17:43;18.50;68.30
59505;DHT22;45321;53.200;5.814;2023-05-08T09:20:10;18.60;68.50
59505;DHT22;45321;53.200;5.814;2023-05-08T09:22:39;18.70;67.50
59505;DHT22;45321;53.200;5.814;2023-05-08T09:25:05;18.80;68.00
59505;DHT22;45321;53.200;5.814;2023-05-08T09:27:31;18.80;67.90
59505;DHT22;45321;53.200;5.814;2023-05-08T09:30:08;18.90;67.00
59505;DHT22;45321;53.200;5.814;2023-05-08T09:32:36;19.00;67.70
59505;DHT22;45321;53.200;5.814;2023-05-08T09:35:04;19.20;67.40
59505;DHT22;45321;53.200;5.814;2023-05-08T09:37:30;19.30;67.00
59505;DHT22;45321;53.200;5.814;2023-05-08T09:40:17;19.40;66.80
59505;DHT22;45321;53.200;5.814;2023-05-08T09:42:43;19.50;66.60
59505;DHT22;45321;53.200;5.814;2023-05-08T09:45:09;19.60;66.70
59505;DHT22;45321;53.200;5.814;2023-05-08T09:47:35;19.70;66.90
59505;DHT22;45321;53.200;5.814;2023-05-08T09:50:06;19.80;66.40
59505;DHT22;45321;53.200;5.814;2023-05-08T09:52:35;19.90;66.00
59505;DHT22;45321;53.200;5.814;2023-05-08T09:55:08;20.00;65.90
59505;DHT22;45321;53.200;5.814;2023-05-08T09:57:36;20.10;64.30
59505;DHT22;45321;53.200;5.814;2023-05-08T10:00:11;20.20;64.90
59505;DHT22;45321;53.200;5.814;2023-05-08T10:02:39;20.20;65.40
59505;DHT22;45321;53.200;5.814;2023-05-08T10:07:50;20.40;64.60
59505;DHT22;45321;53.200;5.814;2023-05-08T10:10:25;20.30;64.80
59505;DHT22;45321;53.200;5.814;2023-05-08T10:12:52;20.40;65.00
59505;DHT22;45321;53.200;5.814;2023-05-08T10:15:20;20.50;64.90
59505;DHT22;45321;53.200;5.814;2023-05-08T10:20:28;20.70;64.80
59505;DHT22;45321;53.200;5.814;2023-05-08T10:22:55;20.90;65.20
59505;DHT22;45321;53.200;5.814;2023-05-08T10:25:22;20.90;64.50
59505;DHT22;45321;53.200;5.814;2023-05-08T10:30:49;21.20;63.70
59505;DHT22;45321;53.200;5.814;2023-05-08T10:33:20;21.30;63.80
59505;DHT22;45321;53.200;5.814;2023-05-08T10:35:50;21.50;63.80
59505;DHT22;45321;53.200;5.814;2023-05-08T10:38:16;21.70;63.10
59505;DHT22;45321;53.200;5.814;2023-05-08T10:40:42;21.70;63.10
59505;DHT22;45321;53.200;5.814;2023-05-08T10:43:09;21.90;62.40
59505;DHT22;45321;53.200;5.814;2023-05-08T10:45:36;22.00;61.50
59505;DHT22;45321;53.200;5.814;2023-05-08T10:54:11;22.20;61.80
59505;DHT22;45321;53.200;5.814;2023-05-08T10:56:17;22.40;61.50
59505;DHT22;45321;53.200;5.814;2023-05-08T10:58:42;22.60;60.00
59505;DHT22;45321;53.200;5.814;2023-05-08T11:01:14;22.60;60.40
59505;DHT22;45321;53.200;5.814;2023-05-08T11:03:41;22.70;61.10
59505;DHT22;45321;53.200;5.814;2023-05-08T11:06:07;22.90;59.20
59505;DHT22;45321;53.200;5.814;2023-05-08T11:08:46;23.10;59.70
59505;DHT22;45321;53.200;5.814;2023-05-08T11:11:31;23.20;59.00
59505;DHT22;45321;53.200;5.814;2023-05-08T11:19:26;23.00;59.00
59505;DHT22;45321;53.200;5.814;2023-05-08T11:24:57;22.90;59.10
59505;DHT22;45321;53.200;5.814;2023-05-08T11:30:32;23.10;60.20
59505;DHT22;45321;53.200;5.814;2023-05-08T11:35:39;23.10;59.80
59505;DHT22;45321;53.200;5.814;2023-05-08T11:40:48;22.90;59.50
59505;DHT22;45321;53.200;5.814;2023-05-08T11:46:16;23.00;60.00
59505;DHT22;45321;53.200;5.814;2023-05-08T11:48:42;22.90;59.10
59505;DHT22;45321;53.200;5.814;2023-05-08T11:51:09;22.80;60.40
59505;DHT22;45321;53.200;5.814;2023-05-08T11:53:36;22.80;60.80
59505;DHT22;45321;53.200;5.814;2023-05-08T11:56:02;22.80;60.80
59505;DHT22;45321;53.200;5.814;2023-05-08T11:58:28;22.80;60.60
59505;DHT22;45321;53.200;5.814;2023-05-08T12:00:54;22.70;60.30
59505;DHT22;45321;53.200;5.814;2023-05-08T12:03:21;22.70;60.80
59505;DHT22;45321;53.200;5.814;2023-05-08T12:05:49;22.60;60.80
59505;DHT22;45321;53.200;5.814;2023-05-08T12:08:16;22.50;60.70
59505;DHT22;45321;53.200;5.814;2023-05-08T12:13:19;22.30;60.90
59505;DHT22;45321;53.200;5.814;2023-05-08T12:15:46;22.20;61.20
59505;DHT22;45321;53.200;5.814;2023-05-08T12:18:12;22.10;61.90
59505;DHT22;45321;53.200;5.814;2023-05-08T12:20:38;22.20;62.30
59505;DHT22;45321;53.200;5.814;2023-05-08T12:23:04;22.20;62.10
59505;DHT22;45321;53.200;5.814;2023-05-08T12:25:30;22.20;62.00
59505;DHT22;45321;53.200;5.814;2023-05-08T12:27:55;22.20;62.10
59505;DHT22;45321;53.200;5.814;2023-05-08T12:30:21;22.20;62.90
59505;DHT22;45321;53.200;5.814;2023-05-08T12:32:47;22.20;62.60
59505;DHT22;45321;53.200;5.814;2023-05-08T12:35:14;22.30;61.50
59505;DHT22;45321;53.200;5.814;2023-05-08T12:37:40;22.30;62.20
59505;DHT22;45321;53.200;5.814;2023-05-08T12:40:18;22.40;62.20
59505;DHT22;45321;53.200;5.814;2023-05-08T12:42:50;22.40;62.00
59505;DHT22;45321;53.200;5.814;2023-05-08T12:45:20;22.40;61.70
59505;DHT22;45321;53.200;5.814;2023-05-08T12:47:51;22.30;61.50
59505;DHT22;45321;53.200;5.814;2023-05-08T12:50:18;22.30;62.40
59505;DHT22;45321;53.200;5.814;2023-05-08T12:52:49;22.40;62.20
59505;DHT22;45321;53.200;5.814;2023-05-08T12:55:25;22.50;61.60
59505;DHT22;45321;53.200;5.814;2023-05-08T12:58:11;22.50;61.50
59505;DHT22;45321;53.200;5.814;2023-05-08T13:00:43;22.60;61.70
59505;DHT22;45321;53.200;5.814;2023-05-08T13:03:10;22.50;61.90
59505;DHT22;45321;53.200;5.814;2023-05-08T13:05:46;22.40;62.20
59505;DHT22;45321;53.200;5.814;2023-05-08T13:08:11;22.40;62.20
59505;DHT22;45321;53.200;5.814;2023-05-08T13:13:15;22.80;61.70
59505;DHT22;45321;53.200;5.814;2023-05-08T13:15:41;22.90;61.10
59505;DHT22;45321;53.200;5.814;2023-05-08T13:18:07;22.80;61.40
59505;DHT22;45321;53.200;5.814;2023-05-08T13:20:34;22.70;61.80
59505;DHT22;45321;53.200;5.814;2023-05-08T13:23:00;22.80;62.20
59505;DHT22;45321;53.200;5.814;2023-05-08T13:25:26;22.90;62.40
59505;DHT22;45321;53.200;5.814;2023-05-08T13:27:52;22.90;62.10
59505;DHT22;45321;53.200;5.814;2023-05-08T13:30:18;22.90;62.20
59505;DHT22;45321;53.200;5.814;2023-05-08T13:32:50;22.80;61.80
59505;DHT22;45321;53.200;5.814;2023-05-08T13:35:16;22.70;62.70
59505;DHT22;45321;53.200;5.814;2023-05-08T13:37:43;22.60;62.70
59505;DHT22;45321;53.200;5.814;2023-05-08T13:40:09;22.70;62.80
59505;DHT22;45321;53.200;5.814;2023-05-08T13:42:35;22.90;62.40
59505;DHT22;45321;53.200;5.814;2023-05-08T13:45:03;23.20;62.40
59505;DHT22;45321;53.200;5.814;2023-05-08T13:47:29;23.30;62.00
59505;DHT22;45321;53.200;5.814;2023-05-08T13:49:54;23.30;61.80
59505;DHT22;45321;53.200;5.814;2023-05-08T13:52:20;23.50;61.30
59505;DHT22;45321;53.200;5.814;2023-05-08T13:54:46;23.70;60.90
59505;DHT22;45321;53.200;5.814;2023-05-08T13:57:11;23.70;61.10
59505;DHT22;45321;53.200;5.814;2023-05-08T13:59:37;23.60;61.60
59505;DHT22;45321;53.200;5.814;2023-05-08T14:02:03;23.70;62.30
59505;DHT22;45321;53.200;5.814;2023-05-08T14:04:29;23.90;61.60
59505;DHT22;45321;53.200;5.814;2023-05-08T14:06:55;24.30;59.60
59505;DHT22;45321;53.200;5.814;2023-05-08T14:09:21;24.70;58.90
59505;DHT22;45321;53.200;5.814;2023-05-08T14:11:46;25.00;58.50
59505;DHT22;45321;53.200;5.814;2023-05-08T14:14:12;25.20;57.60
59505;DHT22;45321;53.200;5.814;2023-05-08T14:16:38;25.50;56.40
59505;DHT22;45321;53.200;5.814;2023-05-08T14:19:04;25.40;57.10
59505;DHT22;45321;53.200;5.814;2023-05-08T14:21:29;25.40;56.70
59505;DHT22;45321;53.200;5.814;2023-05-08T14:23:56;25.30;56.30
59505;DHT22;45321;53.200;5.814;2023-05-08T14:26:22;25.50;57.40
59505;DHT22;45321;53.200;5.814;2023-05-08T14:28:47;25.70;55.80
59505;DHT22;45321;53.200;5.814;2023-05-08T14:31:13;25.80;55.70
59505;DHT22;45321;53.200;5.814;2023-05-08T14:33:39;25.90;55.60
59505;DHT22;45321;53.200;5.814;2023-05-08T14:36:05;26.10;54.70
59505;DHT22;45321;53.200;5.814;2023-05-08T14:38:31;25.90;54.30
59505;DHT22;45321;53.200;5.814;2023-05-08T14:40:57;25.80;54.70
59505;DHT22;45321;53.200;5.814;2023-05-08T14:43:22;25.90;55.20
59505;DHT22;45321;53.200;5.814;2023-05-08T14:45:48;25.90;55.50
59505;DHT22;45321;53.200;5.814;2023-05-08T14:48:14;26.00;54.50
59505;DHT22;45321;53.200;5.814;2023-05-08T14:50:40;26.20;53.10
59505;DHT22;45321;53.200;5.814;2023-05-08T14:53:06;26.20;53.00
59505;DHT22;45321;53.200;5.814;2023-05-08T14:55:32;26.40;52.20
59505;DHT22;45321;53.200;5.814;2023-05-08T14:57:57;26.70;51.40
59505;DHT22;45321;53.200;5.814;2023-05-08T15:00:23;26.80;50.80
59505;DHT22;45321;53.200;5.814;2023-05-08T15:02:49;27.00;51.10
59505;DHT22;45321;53.200;5.814;2023-05-08T15:05:15;27.20;49.80
59505;DHT22;45321;53.200;5.814;2023-05-08T15:07:41;27.10;49.90
59505;DHT22;45321;53.200;5.814;2023-05-08T15:10:07;26.90;50.30
59505;DHT22;45321;53.200;5.814;2023-05-08T15:12:33;26.70;50.50
59505;DHT22;45321;53.200;5.814;2023-05-08T15:14:59;26.60;50.70
59505;DHT22;45321;53.200;5.814;2023-05-08T15:17:24;26.60;51.20
59505;DHT22;45321;53.200;5.814;2023-05-08T15:19:50;26.60;50.90
59505;DHT22;45321;53.200;5.814;2023-05-08T15:22:16;26.40;50.70
59505;DHT22;45321;53.200;5.814;2023-05-08T15:24:44;26.10;50.30
59505;DHT22;45321;53.200;5.814;2023-05-08T15:27:10;25.90;52.20
59505;DHT22;45321;53.200;5.814;2023-05-08T15:29:36;25.80;51.90
59505;DHT22;45321;53.200;5.814;2023-05-08T15:32:07;25.70;52.00
59505;DHT22;45321;53.200;5.814;2023-05-08T15:34:33;25.40;52.50
59505;DHT22;45321;53.200;5.814;2023-05-08T15:36:59;25.20;53.20
59505;DHT22;45321;53.200;5.814;2023-05-08T15:39:25;25.10;54.10
59505;DHT22;45321;53.200;5.814;2023-05-08T15:41:50;24.90;54.80
59505;DHT22;45321;53.200;5.814;2023-05-08T15:44:19;24.70;55.00
59505;DHT22;45321;53.200;5.814;2023-05-08T15:46:45;24.40;55.80
59505;DHT22;45321;53.200;5.814;2023-05-08T15:49:11;24.20;56.70
59505;DHT22;45321;53.200;5.814;2023-05-08T15:51:36;24.00;57.70
59505;DHT22;45321;53.200;5.814;2023-05-08T15:54:02;24.00;58.10
59505;DHT22;45321;53.200;5.814;2023-05-08T15:56:28;24.10;58.30
59505;DHT22;45321;53.200;5.814;2023-05-08T15:58:54;24.20;58.10
59505;DHT22;45321;53.200;5.814;2023-05-08T16:01:20;24.20;57.50
59505;DHT22;45321;53.200;5.814;2023-05-08T16:03:46;24.20;56.80
59505;DHT22;45321;53.200;5.814;2023-05-08T16:06:11;24.20;56.80
59505;DHT22;45321;53.200;5.814;2023-05-08T16:08:37;24.10;57.50
59505;DHT22;45321;53.200;5.814;2023-05-08T16:11:03;24.10;58.00
59505;DHT22;45321;53.200;5.814;2023-05-08T16:13:29;24.10;59.10
59505;DHT22;45321;53.200;5.814;2023-05-08T16:16:01;24.10;60.40
59505;DHT22;45321;53.200;5.814;2023-05-08T16:18:28;24.00;60.80
59505;DHT22;45321;53.200;5.814;2023-05-08T16:20:55;23.90;61.40
59505;DHT22;45321;53.200;5.814;2023-05-08T16:23:20;23.80;61.40
59505;DHT22;45321;53.200;5.814;2023-05-08T16:25:46;23.70;61.80
59505;DHT22;45321;53.200;5.814;2023-05-08T16:28:12;23.60;61.90
59505;DHT22;45321;53.200;5.814;2023-05-08T16:30:38;23.60;62.30